Time;durP1;ratioP1;P1;durP2;ratioP2;P2;SDS_P1;SDS_P2;PMS_P1;PMS_P2;Temp;Humidity;BMP_temperature;BMP_pressure;BME280_temperature;BME280_humidity;BME280_pressure;Samples;Min_cycle;Max_cycle;Signal;HPM_P1;HPM_P2
2023/10/18 00:01:26;;;;;;;;;;;;;;;-144.99;100.00;52460.31;5075520;28;19931;-66
2023/10/18 00:03:54;;;;;;;;;;;;;;;-144.99;100.00;52456.25;5067467;28;19932;-67
2023/10/18 00:06:23;;;;;;;;;;;;;;;-144.99;100.00;52476.63;5074052;28;19925;-78
2023/10/18 00:08:50;;;;;;;;;;;;;;;-144.99;100.00;52452.16;5067996;28;20313;-74
2023/10/18 00:11:17;;;;;;;;;;;;;;;-144.99;100.00;52464.41;5067934;28;20025;-74
2023/10/18 00:13:44;;;;;;;;;;;;;;;-144.99;100.00;52464.41;5065232;28;20423;-73
2023/10/18 00:16:12;;;;;;;;;;;;;;;-144.99;100.00;52509.25;5069917;28;20178;-72
2023/10/18 00:18:39;;;;;;;;;;;;;;;-144.99;100.00;52484.78;5069222;28;19986;-69
2023/10/18 00:21:07;;;;;;;;;;;;;;;-144.99;100.00;52476.63;5069297;28;19960;-70
2023/10/18 00:23:35;;;;;;;;;;;;;;;-144.99;100.00;52452.16;5067819;28;20377;-69
2023/10/18 00:26:05;;;;;;;;;;;;;;;-144.99;100.00;52480.72;5068870;28;20373;-70
2023/10/18 00:28:31;;;;;;;;;;;;;;;-144.99;100.00;52505.16;5063906;28;19954;-68
2023/10/18 00:30:59;;;;;;;;;;;;;;;-144.99;100.00;52435.88;5048979;28;19928;-68
2023/10/18 00:33:28;;;;;;;;;;;;;;;-144.99;100.00;52472.56;5071767;28;19936;-69
2023/10/18 00:35:57;;;;;;;;;;;;;;;-144.99;100.00;52468.47;5073862;28;20391;-69
2023/10/18 00:38:24;;;;;;;;;;;;;;;-144.99;100.00;52441.97;5076686;28;20253;-68
2023/10/18 00:40:52;;;;;;;;;;;;;;;-144.99;100.00;52452.16;5068527;28;19974;-68
2023/10/18 00:43:21;;;;;;;;;;;;;;;-144.99;100.00;52478.66;5065753;28;20436;-69
2023/10/18 00:45:50;;;;;;;;;;;;;;;-144.99;100.00;52427.72;5069594;28;19924;-68
2023/10/18 00:48:19;;;;;;;;;;;;;;;-144.99;100.00;52419.56;5068786;28;20308;-68
2023/10/18 00:50:48;;;;;;;;;;;;;;;-144.99;100.00;52431.78;5068669;28;19932;-67
2023/10/18 00:53:19;;;;;;;;;;;;;;;-144.99;100.00;52454.22;5067304;28;19943;-67
2023/10/18 00:55:48;;;;;;;;;;;;;;;-144.99;100.00;52476.63;5069128;28;19939;-67
2023/10/18 00:58:19;;;;;;;;;;;;;;;-144.99;100.00;52466.44;5068680;28;20002;-68
2023/10/18 01:00:45;;;;;;;;;;;;;;;-144.99;100.00;52419.56;5071316;28;19929;-66
2023/10/18 01:03:28;;;;;;;;;;;;;;;-144.99;100.00;52476.63;5066659;28;19950;-66
2023/10/18 01:06:03;;;;;;;;;;;;;;;-144.99;100.00;52448.09;5076455;28;19931;-66
2023/10/18 01:08:32;;;;;;;;;;;;;;;-144.99;100.00;52468.47;5068357;28;19925;-66
2023/10/18 01:11:04;;;;;;;;;;;;;;;-144.99;100.00;52468.47;5068174;28;20405;-67
2023/10/18 01:13:34;;;;;;;;;;;;;;;-144.99;100.00;52439.94;5078157;28;19932;-67
2023/10/18 01:16:03;;;;;;;;;;;;;;;-144.99;100.00;52456.25;5054449;28;19949;-69
2023/10/18 01:18:30;;;;;;;;;;;;;;;-144.99;100.00;52460.31;5058162;28;20078;-70
2023/10/18 01:20:57;;;;;;;;;;;;;;;-144.99;100.00;52484.78;5066869;28;19979;-69
2023/10/18 01:23:23;;;;;;;;;;;;;;;-144.99;100.00;52444.03;5088133;22;21031;-74
2023/10/18 01:25:51;;;;;;;;;;;;;;;-144.99;100.00;52468.47;5125470;27;20472;-74
2023/10/18 01:28:18;;;;;;;;;;;;;;;-144.99;100.00;52439.94;5126903;27;20449;-73
2023/10/18 01:30:44;;;;;;;;;;;;;;;-144.99;100.00;52460.31;5126097;27;19924;-72
2023/10/18 01:33:13;;;;;;;;;;;;;;;-144.99;100.00;52488.84;5121426;27;19923;-73
2023/10/18 01:35:46;;;;;;;;;;;;;;;-144.99;100.00;52497.00;5100480;28;20465;-71
2023/10/18 01:38:15;;;;;;;;;;;;;;;-144.99;100.00;52472.56;5105561;28;20018;-71
2023/10/18 01:40:52;;;;;;;;;;;;;;;-144.99;100.00;52472.56;5106379;28;19927;-73
2023/10/18 01:43:19;;;;;;;;;;;;;;;-144.99;100.00;52484.78;5101822;28;19928;-71
2023/10/18 01:45:49;;;;;;;;;;;;;;;-144.99;100.00;52444.03;5106481;28;19971;-71
2023/10/18 01:48:19;;;;;;;;;;;;;;;-144.99;100.00;52456.25;5103002;28;19927;-72
2023/10/18 01:50:47;;;;;;;;;;;;;;;-144.99;100.00;52480.72;5105636;28;19924;-71
2023/10/18 01:53:17;;;;;;;;;;;;;;;-144.99;100.00;52431.78;5120281;28;19934;-72
2023/10/18 01:55:47;;;;;;;;;;;;;;;-144.99;100.00;52460.31;5123902;28;19924;-71
2023/10/18 01:58:14;;;;;;;;;;;;;;;-144.99;100.00;52452.16;5109042;28;19969;-71
2023/10/18 02:00:46;;;;;;;;;;;;;;;-144.99;100.00;52480.72;5109395;28;19934;-71
2023/10/18 02:03:13;;;;;;;;;;;;;;;-144.99;100.00;52452.16;5128861;28;19950;-77
2023/10/18 02:05:40;;;;;;;;;;;;;;;-144.99;100.00;52497.00;5131591;28;20377;-71
2023/10/18 02:08:06;;;;;;;;;;;;;;;-144.99;100.00;52456.25;5129569;28;19963;-71
2023/10/18 02:10:34;;;;;;;;;;;;;;;-144.99;100.00;52478.66;5124891;28;19927;-70
2023/10/18 02:13:01;;;;;;;;;;;;;;;-144.99;100.00;52492.94;5109303;28;20355;-70
2023/10/18 02:15:30;;;;;;;;;;;;;;;-144.99;100.00;52476.63;5110168;28;19930;-71
2023/10/18 02:17:58;;;;;;;;;;;;;;;-144.99;100.00;52480.72;5108971;28;19927;-71
2023/10/18 02:20:28;;;;;;;;;;;;;;;-144.99;100.00;52415.47;5107706;28;19932;-70
2023/10/18 02:22:59;;;;;;;;;;;;;;;-144.99;100.00;52464.41;5108706;28;20892;-71
2023/10/18 02:25:37;;;;;;;;;;;;;;;-144.99;100.00;52488.84;5109517;28;20022;-70
2023/10/18 02:28:08;;;;;;;;;;;;;;;-144.99;100.00;52460.31;5114212;27;20019;-70
2023/10/18 02:30:35;;;;;;;;;;;;;;;-144.99;100.00;52474.59;5111775;28;19920;-71
2023/10/18 02:33:04;;;;;;;;;;;;;;;-144.99;100.00;52460.31;5125318;28;20037;-70
2023/10/18 02:35:31;;;;;;;;;;;;;;;-144.99;100.00;52452.16;5110286;28;19931;-70
2023/10/18 02:37:57;;;;;;;;;;;;;;;-144.99;100.00;52484.78;5115857;27;19976;-72
2023/10/18 02:40:29;;;;;;;;;;;;;;;-144.99;100.00;52452.16;5107545;28;19982;-72
2023/10/18 02:42:57;;;;;;;;;;;;;;;-144.99;100.00;52464.41;5108614;28;19930;-72
2023/10/18 02:45:24;;;;;;;;;;;;;;;-144.99;100.00;52464.41;5110363;28;19924;-72
2023/10/18 02:47:51;;;;;;;;;;;;;;;-144.99;100.00;52505.16;5109612;28;20565;-72
2023/10/18 02:50:20;;;;;;;;;;;;;;;-144.99;100.00;52470.50;5106886;28;19927;-72
2023/10/18 02:52:46;;;;;;;;;;;;;;;-144.99;100.00;52505.16;5110107;28;19951;-72
2023/10/18 02:55:13;;;;;;;;;;;;;;;-144.99;100.00;52446.06;5112298;28;19928;-72
2023/10/18 02:57:42;;;;;;;;;;;;;;;-144.99;100.00;52433.81;5112516;28;20441;-72
2023/10/18 03:00:11;;;;;;;;;;;;;;;-144.99;100.00;52444.03;5112092;28;19923;-72
2023/10/18 03:02:38;;;;;;;;;;;;;;;-144.99;100.00;52452.16;5109793;28;20507;-72
2023/10/18 03:05:06;;;;;;;;;;;;;;;-144.99;100.00;52464.41;5111660;28;19978;-72
2023/10/18 03:07:34;;;;;;;;;;;;;;;-144.99;100.00;52450.13;5116626;28;19924;-72
2023/10/18 03:10:11;;;;;;;;;;;;;;;-144.99;100.00;52448.09;5128609;28;19931;-71
2023/10/18 03:12:37;;;;;;;;;;;;;;;-144.99;100.00;52456.25;5124546;28;20453;-72
2023/10/18 03:15:08;;;;;;;;;;;;;;;-144.99;100.00;52484.78;5108616;28;19923;-72
2023/10/18 03:17:37;;;;;;;;;;;;;;;-144.99;100.00;52484.78;5108806;28;19938;-72
2023/10/18 03:20:09;;;;;;;;;;;;;;;-144.99;100.00;52444.03;5108619;28;19934;-71
2023/10/18 03:22:42;;;;;;;;;;;;;;;-144.99;100.00;52448.09;5107220;28;20038;-71
2023/10/18 03:25:16;;;;;;;;;;;;;;;-144.99;100.00;52470.50;5110276;28;19956;-71
2023/10/18 03:27:49;;;;;;;;;;;;;;;-144.99;100.00;52456.25;5114584;27;19943;-73
2023/10/18 03:30:18;;;;;;;;;;;;;;;-144.99;100.00;52448.09;5105626;28;19977;-71
2023/10/18 03:32:49;;;;;;;;;;;;;;;-144.99;100.00;52435.88;5105629;28;19928;-70
2023/10/18 03:35:20;;;;;;;;;;;;;;;-144.99;100.00;52472.56;5104382;28;20008;-71
2023/10/18 03:37:48;;;;;;;;;;;;;;;-144.99;100.00;52448.09;5115370;27;20619;-71
2023/10/18 03:40:19;;;;;;;;;;;;;;;-144.99;100.00;52456.25;5109079;28;20462;-71
2023/10/18 03:42:46;;;;;;;;;;;;;;;-144.99;100.00;52460.31;5110706;28;20355;-71
2023/10/18 03:45:13;;;;;;;;;;;;;;;-144.99;100.00;52425.66;5108390;28;19927;-71
2023/10/18 03:47:41;;;;;;;;;;;;;;;-144.99;100.00;52480.72;5116174;28;20286;-71
2023/10/18 03:50:13;;;;;;;;;;;;;;;-144.99;100.00;52472.56;5124602;28;19931;-73
2023/10/18 03:52:40;;;;;;;;;;;;;;;-144.99;100.00;52444.03;5122894;28;19928;-71
2023/10/18 03:55:15;;;;;;;;;;;;;;;-144.99;100.00;52476.63;5123072;28;19927;-70
2023/10/18 03:57:42;;;;;;;;;;;;;;;-144.99;100.00;52460.31;5106866;28;20554;-71
2023/10/18 04:00:28;;;;;;;;;;;;;;;-144.99;100.00;52448.09;5107957;28;20001;-72
2023/10/18 04:02:56;;;;;;;;;;;;;;;-144.99;100.00;52427.72;5104827;28;19932;-72
2023/10/18 04:05:31;;;;;;;;;;;;;;;-144.99;100.00;52464.41;5108726;28;19976;-72
2023/10/18 04:07:57;;;;;;;;;;;;;;;-144.99;100.00;52431.78;5107397;28;20768;-72
2023/10/18 04:10:26;;;;;;;;;;;;;;;-144.99;100.00;52480.72;5106122;28;19928;-71
2023/10/18 04:12:54;;;;;;;;;;;;;;;-144.99;100.00;52423.63;5106312;28;19931;-70
2023/10/18 04:15:21;;;;;;;;;;;;;;;-144.99;100.00;52492.94;5104285;28;19923;-71
2023/10/18 04:18:02;;;;;;;;;;;;;;;-144.99;100.00;52490.91;5107647;28;19998;-71
2023/10/18 04:20:31;;;;;;;;;;;;;;;-144.99;100.00;52446.06;5108069;28;19931;-72
2023/10/18 04:22:58;;;;;;;;;;;;;;;-144.99;100.00;52464.41;5104878;28;19992;-72
2023/10/18 04:25:26;;;;;;;;;;;;;;;-144.99;100.00;52454.22;5105617;28;19934;-72
2023/10/18 04:27:53;;;;;;;;;;;;;;;-144.99;100.00;52484.78;5124448;27;20047;-71
2023/10/18 04:30:22;;;;;;;;;;;;;;;-144.99;100.00;52476.63;5116591;28;19924;-72
2023/10/18 04:32:53;;;;;;;;;;;;;;;-144.99;100.00;52468.47;5106419;28;20405;-72
2023/10/18 04:35:25;;;;;;;;;;;;;;;-144.99;100.00;52403.25;5106559;28;19931;-72
2023/10/18 04:37:52;;;;;;;;;;;;;;;-144.99;100.00;52478.66;5112966;27;20441;-72
2023/10/18 04:40:24;;;;;;;;;;;;;;;-144.99;100.00;52462.34;5110028;28;20344;-72
2023/10/18 04:42:54;;;;;;;;;;;;;;;-144.99;100.00;52464.41;5110045;28;19946;-72
2023/10/18 04:45:23;;;;;;;;;;;;;;;-144.99;100.00;52444.03;5106905;28;20379;-72
2023/10/18 04:47:50;;;;;;;;;;;;;;;-144.99;100.00;52468.47;5107274;28;19928;-73
2023/10/18 04:50:19;;;;;;;;;;;;;;;-144.99;100.00;52458.28;5104144;28;20394;-74
2023/10/18 04:52:47;;;;;;;;;;;;;;;-144.99;100.00;52444.03;5105888;28;19963;-73
2023/10/18 04:55:14;;;;;;;;;;;;;;;-144.99;100.00;52444.03;5103683;28;19927;-74
2023/10/18 04:57:41;;;;;;;;;;;;;;;-144.99;100.00;52480.72;5104308;28;19927;-73
2023/10/18 05:00:24;;;;;;;;;;;;;;;-144.99;100.00;52476.63;5106374;28;19934;-73
2023/10/18 05:02:52;;;;;;;;;;;;;;;-144.99;100.00;52413.44;5101172;28;19947;-73
2023/10/18 05:05:17;;;;;;;;;;;;;;;-144.99;100.00;52450.13;5122658;28;19923;-75
2023/10/18 05:07:47;;;;;;;;;;;;;;;-144.99;100.00;52464.41;5129742;28;19930;-73
2023/10/18 05:10:18;;;;;;;;;;;;;;;-144.99;100.00;52460.31;5100880;28;20135;-74
2023/10/18 05:12:52;;;;;;;;;;;;;;;-144.99;100.00;52452.16;5107434;28;19928;-73
2023/10/18 05:15:28;;;;;;;;;;;;;;;-144.99;100.00;52484.78;5104135;28;19924;-74
2023/10/18 05:17:58;;;;;;;;;;;;;;;-144.99;100.00;52464.41;5102444;28;19930;-73
2023/10/18 05:20:41;;;;;;;;;;;;;;;-144.99;100.00;52464.41;5106108;28;19928;-73
2023/10/18 05:23:09;;;;;;;;;;;;;;;-144.99;100.00;52472.56;4750599;27;9999890;-73
2023/10/18 05:25:43;;;;;;;;;;;;;;;-144.99;100.00;52444.03;5098718;28;20022;-74
2023/10/18 05:28:15;;;;;;;;;;;;;;;-144.99;100.00;52472.56;5098888;28;19928;-74
2023/10/18 05:36:22;;;;;;;;;;;;;;;-144.99;100.00;52454.22;5103102;28;19988;-74
2023/10/18 05:38:50;;;;;;;;;;;;;;;-144.99;100.00;52492.94;5097277;28;20538;-74
2023/10/18 05:41:27;;;;;;;;;;;;;;;-144.99;100.00;52476.63;5104208;28;19927;-72
2023/10/18 05:43:54;;;;;;;;;;;;;;;-144.99;100.00;52464.41;5126440;28;19922;-73
2023/10/18 05:46:22;;;;;;;;;;;;;;;-144.99;100.00;52468.47;5118319;28;20406;-75
2023/10/18 05:48:49;;;;;;;;;;;;;;;-144.99;100.00;52448.09;5099493;28;19931;-75
2023/10/18 05:51:26;;;;;;;;;;;;;;;-144.99;100.00;52444.03;5103679;28;20050;-75
2023/10/18 05:53:55;;;;;;;;;;;;;;;-144.99;100.00;52458.28;5102501;28;19928;-74
2023/10/18 05:56:24;;;;;;;;;;;;;;;-144.99;100.00;52505.16;5103196;28;20601;-74
2023/10/18 05:59:15;;;;;;;;;;;;;;;-144.99;100.00;52435.88;5101025;28;19924;-75
2023/10/18 06:01:39;;;;;;;;;;;;;;;-144.99;100.00;52411.41;5101684;28;19935;-74
2023/10/18 06:04:06;;;;;;;;;;;;;;;-144.99;100.00;52417.53;5101319;28;20388;-75
2023/10/18 06:06:34;;;;;;;;;;;;;;;-144.99;100.00;52456.25;5103740;28;19928;-75
2023/10/18 06:09:07;;;;;;;;;;;;;;;-144.99;100.00;52456.25;5102965;28;19928;-74
2023/10/18 06:11:36;;;;;;;;;;;;;;;-144.99;100.00;52431.78;5100724;28;19931;-75
2023/10/18 06:14:05;;;;;;;;;;;;;;;-144.99;100.00;52450.13;5102540;28;20426;-75
2023/10/18 06:16:34;;;;;;;;;;;;;;;-144.99;100.00;52448.09;5105375;28;20460;-77
2023/10/18 06:19:02;;;;;;;;;;;;;;;-144.99;100.00;52444.03;5108331;28;19977;-77
2023/10/18 06:21:28;;;;;;;;;;;;;;;-144.99;100.00;52476.63;5118031;28;19932;-76
2023/10/18 06:23:59;;;;;;;;;;;;;;;-144.99;100.00;52439.94;5117834;28;19916;-76
2023/10/18 06:26:28;;;;;;;;;;;;;;;-144.99;100.00;52441.97;5118953;28;19924;-75
2023/10/18 06:29:00;;;;;;;;;;;;;;;-144.99;100.00;52448.09;5124291;28;19924;-74
2023/10/18 06:31:27;;;;;;;;;;;;;;;-144.99;100.00;52444.03;5115402;28;19935;-75
2023/10/18 06:33:56;;;;;;;;;;;;;;;-144.99;100.00;52437.91;5103726;28;19977;-74
2023/10/18 06:36:24;;;;;;;;;;;;;;;-144.99;100.00;52448.09;5103606;28;19928;-74
2023/10/18 06:38:50;;;;;;;;;;;;;;;-144.99;100.00;52456.25;5104081;28;19928;-74
2023/10/18 06:41:20;;;;;;;;;;;;;;;-144.99;100.00;52393.06;5107611;28;20022;-73
2023/10/18 06:43:46;;;;;;;;;;;;;;;-144.99;100.00;52484.78;5098963;28;20024;-73
2023/10/18 06:46:15;;;;;;;;;;;;;;;-144.99;100.00;52427.72;5107104;28;19970;-74
2023/10/18 06:48:44;;;;;;;;;;;;;;;-144.99;100.00;52419.56;5106390;28;19928;-74
2023/10/18 06:51:17;;;;;;;;;;;;;;;-144.99;100.00;52431.78;5098881;28;19927;-73
2023/10/18 06:53:50;;;;;;;;;;;;;;;-144.99;100.00;52395.09;4750806;28;10000513;-74
2023/10/18 06:56:20;;;;;;;;;;;;;;;-144.99;100.00;52417.53;5109452;28;20301;-74
2023/10/18 06:58:46;;;;;;;;;;;;;;;-144.99;100.00;52425.66;5107898;28;20504;-74
2023/10/18 07:01:19;;;;;;;;;;;;;;;-144.99;100.00;52427.72;5134275;28;19912;-74
2023/10/18 07:03:46;;;;;;;;;;;;;;;-144.99;100.00;52407.31;5114951;28;19928;-74
2023/10/18 07:06:18;;;;;;;;;;;;;;;-144.99;100.00;52399.19;5110067;28;19927;-73
2023/10/18 07:08:49;;;;;;;;;;;;;;;-144.99;100.00;52437.91;5110372;28;19928;-74
2023/10/18 07:11:17;;;;;;;;;;;;;;;-144.99;100.00;52476.63;5104609;28;19934;-74
2023/10/18 07:13:46;;;;;;;;;;;;;;;-144.99;100.00;52386.94;5104947;28;19928;-74
2023/10/18 07:16:15;;;;;;;;;;;;;;;-144.99;100.00;52431.78;5100629;28;20454;-73
2023/10/18 07:18:44;;;;;;;;;;;;;;;-144.99;100.00;52417.53;5102137;28;19934;-74
2023/10/18 07:21:11;;;;;;;;;;;;;;;-144.99;100.00;52444.03;5106427;27;20023;-74
2023/10/18 07:23:37;;;;;;;;;;;;;;;-144.99;100.00;52456.25;5103688;28;20050;-74
2023/10/18 07:26:07;;;;;;;;;;;;;;;-144.99;100.00;52427.72;5124873;22;19924;-71
2023/10/18 07:28:35;;;;;;;;;;;;;;;-144.99;100.00;52427.72;5109629;28;19928;-71
2023/10/18 07:31:08;;;;;;;;;;;;;;;-144.99;100.00;52384.91;5117607;27;19935;-71
2023/10/18 07:33:36;;;;;;;;;;;;;;;-144.99;99.88;52386.94;5112898;27;19927;-71
2023/10/18 07:36:03;;;;;;;;;;;;;;;-144.99;99.45;52401.22;5115799;27;19937;-71
2023/10/18 07:38:29;;;;;;;;;;;;;;;-144.99;98.66;52427.72;5118088;27;20354;-71
2023/10/18 07:40:56;;;;;;;;;;;;;;;-144.99;97.67;52395.09;5117517;27;20337;-71
2023/10/18 07:43:25;;;;;;;;;;;;;;;-144.99;97.08;52415.47;5096023;27;19977;-71
2023/10/18 07:45:55;;;;;;;;;;;;;;;-144.99;96.57;52399.19;5114423;27;20334;-72
2023/10/18 07:48:23;;;;;;;;;;;;;;;-144.99;95.25;52360.44;5108348;28;20295;-72
2023/10/18 07:50:51;;;;;;;;;;;;;;;-144.99;94.98;52419.56;5107180;28;19935;-72
2023/10/18 07:53:20;;;;;;;;;;;;;;;-144.99;94.11;52354.34;5113703;27;20038;-71
2023/10/18 07:55:48;;;;;;;;;;;;;;;-144.99;93.33;52366.56;5116275;27;19995;-72
2023/10/18 07:58:23;;;;;;;;;;;;;;;-144.99;92.74;52378.78;5102988;27;19936;-71
2023/10/18 08:01:12;;;;;;;;;;;;;;;-144.99;91.60;52382.88;5113109;27;19938;-72
2023/10/18 08:03:38;;;;;;;;;;;;;;;-144.99;91.08;52386.94;5107702;27;20102;-73
2023/10/18 08:06:15;;;;;;;;;;;;;;;-144.99;90.67;52393.06;5107428;28;20000;-72
2023/10/18 08:08:42;;;;;;;;;;;;;;;-144.99;90.42;52395.09;5108938;27;20379;-71
2023/10/18 08:11:11;;;;;;;;;;;;;;;-144.99;90.54;52391.03;5101670;27;19958;-71
2023/10/18 08:13:45;;;;;;;;;;;;;;;-144.99;90.37;52386.94;5112875;27;19984;-72
2023/10/18 08:16:19;;;;;;;;;;;;;;;-144.99;89.14;52386.94;5105273;27;19931;-71
2023/10/18 08:18:52;;;;;;;;;;;;;;;-144.99;88.83;52391.03;5121476;27;19931;-71
2023/10/18 08:21:25;;;;;;;;;;;;;;;-144.99;87.83;52391.03;5116354;27;19931;-73
2023/10/18 08:23:51;;;;;;;;;;;;;;;-144.99;87.27;52338.03;5110427;27;19927;-72
2023/10/18 08:26:20;;;;;;;;;;;;;;;-144.99;86.37;52338.03;5108733;27;20397;-72
2023/10/18 08:28:46;;;;;;;;;;;;;;;-144.99;85.20;52382.88;5103571;28;19939;-71
2023/10/18 08:31:32;;;;;;;;;;;;;;;-144.99;84.41;52350.25;5116671;27;19985;-72
2023/10/18 08:33:59;;;;;;;;;;;;;;;-144.99;83.68;52370.63;5104471;28;19935;-72
2023/10/18 08:36:31;;;;;;;;;;;;;;;-144.99;83.09;52378.78;5104061;28;19972;-73
2023/10/18 08:38:58;;;;;;;;;;;;;;;-144.99;81.98;52350.25;5107557;27;19946;-73
2023/10/18 08:41:26;;;;;;;;;;;;;;;-144.99;80.64;52354.34;5114742;27;20406;-73
2023/10/18 08:43:59;;;;;;;;;;;;;;;-144.99;78.84;52338.03;5122007;27;20019;-73
2023/10/18 08:46:27;;;;;;;;;;;;;;;-144.99;77.64;52374.72;5113716;27;19924;-74
2023/10/18 08:48:55;;;;;;;;;;;;;;;-144.99;76.71;52329.88;5117874;27;19991;-74
2023/10/18 08:51:26;;;;;;;;;;;;;;;-144.99;75.91;52354.34;5106283;28;19973;-73
2023/10/18 08:53:54;;;;;;;;;;;;;;;-144.99;75.37;52350.25;5108947;28;20242;-74
2023/10/18 08:56:29;;;;;;;;;;;;;;;-144.99;75.01;52321.72;5095422;28;19996;-72
2023/10/18 08:58:56;;;;;;;;;;;;;;;-144.99;74.21;52309.50;5112232;27;19932;-74
2023/10/18 09:01:23;;;;;;;;;;;;;;;-144.99;73.54;52342.09;5115107;27;19971;-73
2023/10/18 09:03:50;;;;;;;;;;;;;;;-144.99;72.86;52309.50;5118327;28;19995;-74
2023/10/18 09:06:30;;;;;;;;;;;;;;;-144.99;72.34;52368.59;5110139;28;19995;-73
2023/10/18 09:09:04;;;;;;;;;;;;;;;-144.99;72.06;52325.81;5107186;27;20385;-74
2023/10/18 09:11:31;;;;;;;;;;;;;;;-144.99;71.94;52317.66;5104023;27;19959;-74
2023/10/18 09:14:10;;;;;;;;;;;;;;;-144.99;72.09;52350.25;5108411;28;20411;-73
2023/10/18 09:16:37;;;;;;;;;;;;;;;-144.99;71.85;52342.09;5100642;28;19974;-73
2023/10/18 09:19:05;;;;;;;;;;;;;;;-144.99;71.36;52350.25;5107020;28;20375;-73
2023/10/18 09:21:36;;;;;;;;;;;;;;;-144.99;70.49;52327.84;5113666;27;20385;-74
2023/10/18 09:24:05;;;;;;;;;;;;;;;-144.99;69.53;52366.56;5109016;27;19927;-74
2023/10/18 09:26:35;;;;;;;;;;;;;;;-144.99;69.64;52333.94;5094647;28;19928;-74
2023/10/18 09:29:02;;;;;;;;;;;;;;;-144.99;69.41;52278.91;5104751;28;19946;-74
2023/10/18 09:31:29;;;;;;;;;;;;;;;-144.99;68.75;52329.88;5104775;27;19928;-74
2023/10/18 09:33:58;;;;;;;;;;;;;;;-144.99;68.07;52313.56;5111121;27;20006;-74
2023/10/18 09:36:27;;;;;;;;;;;;;;;-144.99;67.77;52305.41;5109575;28;19931;-74
2023/10/18 09:38:54;;;;;;;;;;;;;;;-144.99;67.24;52333.94;5098119;28;19928;-73
2023/10/18 09:41:21;;;;;;;;;;;;;;;-144.99;66.97;52301.34;5113998;27;19980;-74
2023/10/18 09:43:48;;;;;;;;;;;;;;;-144.99;66.26;52313.56;5112797;27;20004;-74
2023/10/18 09:46:15;;;;;;;;;;;;;;;-144.99;65.82;52307.47;5117824;27;20351;-74
2023/10/18 09:48:43;;;;;;;;;;;;;;;-144.99;64.53;52252.44;5104359;28;19935;-75
2023/10/18 09:51:14;;;;;;;;;;;;;;;-144.99;64.04;52248.34;5097912;28;19955;-75
2023/10/18 09:53:46;;;;;;;;;;;;;;;-144.99;63.71;52317.66;5110800;28;20444;-75
2023/10/18 09:56:14;;;;;;;;;;;;;;;-144.99;62.94;52252.44;5104181;28;19975;-74
2023/10/18 09:58:43;;;;;;;;;;;;;;;-144.99;62.79;52252.44;5112420;28;20005;-75
2023/10/18 10:01:14;;;;;;;;;;;;;;;-144.99;62.35;52248.34;5106156;28;19946;-75
2023/10/18 10:03:50;;;;;;;;;;;;;;;-144.99;62.04;52280.97;5110344;28;20395;-74
2023/10/18 10:06:18;;;;;;;;;;;;;;;-144.99;61.31;52256.50;5108125;28;19966;-75
2023/10/18 10:08:47;;;;;;;;;;;;;;;-144.99;61.28;52307.47;5110801;28;19979;-75
2023/10/18 10:11:18;;;;;;;;;;;;;;;-144.99;61.20;52244.28;5108531;28;19945;-75
2023/10/18 10:13:49;;;;;;;;;;;;;;;-144.99;60.86;52240.19;5124844;27;20165;-75
2023/10/18 10:16:18;;;;;;;;;;;;;;;-144.99;60.59;52285.03;5118201;27;19924;-76
2023/10/18 10:18:47;;;;;;;;;;;;;;;-144.99;61.47;52264.66;5119877;27;19935;-74
2023/10/18 10:21:16;;;;;;;;;;;;;;;-144.99;60.98;52256.50;5105757;28;20001;-75
2023/10/18 10:23:43;;;;;;;;;;;;;;;-144.99;61.19;52299.31;5108687;27;20003;-75
2023/10/18 10:26:15;;;;;;;;;;;;;;;-144.99;61.18;52260.56;5099606;27;20023;-74
2023/10/18 10:31:54;;;;;;;;;;;;;;;-144.99;60.96;52244.28;5123783;28;19934;-74
2023/10/18 10:34:26;;;;;;;;;;;;;;;-144.99;59.82;52219.81;5127241;27;19931;-76
2023/10/18 10:36:53;;;;;;;;;;;;;;;-144.99;59.87;52236.13;5128568;27;19936;-76
2023/10/18 10:39:24;;;;;;;;;;;;;;;-144.99;59.78;52244.28;5126168;27;19923;-75
2023/10/18 10:41:53;;;;;;;;;;;;;;;-144.99;59.54;52209.63;5109321;27;20023;-75
2023/10/18 10:44:23;;;;;;;;;;;;;;;-144.99;58.72;52211.66;5114983;27;19955;-74
2023/10/18 10:46:51;;;;;;;;;;;;;;;-144.99;58.02;52244.28;5092257;28;19932;-74
2023/10/18 10:49:34;;;;;;;;;;;;;;;-144.99;57.98;52207.59;5118570;27;20406;-76
2023/10/18 10:52:04;;;;;;;;;;;;;;;-144.99;57.80;52219.81;5098622;27;19986;-75
2023/10/18 10:54:30;;;;;;;;;;;;;;;-144.99;57.53;52195.34;5107564;27;19928;-75
2023/10/18 10:57:00;;;;;;;;;;;;;;;-144.99;58.29;52276.88;5118104;27;19932;-75
2023/10/18 10:59:28;;;;;;;;;;;;;;;-144.99;58.81;52223.88;5112600;28;19927;-74
2023/10/18 11:02:07;;;;;;;;;;;;;;;-144.99;58.62;52203.50;5110192;28;19955;-74
2023/10/18 11:04:58;;;;;;;;;;;;;;;-144.99;57.75;52227.97;5108304;28;19932;-74
2023/10/18 11:07:25;;;;;;;;;;;;;;;-144.99;57.76;52179.06;5108866;27;19943;-74
2023/10/18 11:09:59;;;;;;;;;;;;;;;-144.99;57.93;52199.44;5114133;27;20055;-76
2023/10/18 11:12:29;;;;;;;;;;;;;;;-144.99;57.34;52211.66;5113973;27;19939;-76
2023/10/18 11:14:55;;;;;;;;;;;;;;;-144.99;57.11;52183.13;5113694;27;20371;-75
2023/10/18 11:17:24;;;;;;;;;;;;;;;-144.99;57.00;52203.50;5112792;27;19924;-76
2023/10/18 11:19:53;;;;;;;;;;;;;;;-144.99;57.01;52240.19;5108773;28;20291;-75
2023/10/18 11:22:21;;;;;;;;;;;;;;;-144.99;56.97;52179.06;5119944;27;20381;-75
2023/10/18 11:24:49;;;;;;;;;;;;;;;-144.99;57.23;52166.81;5121399;27;19931;-75
2023/10/18 11:27:17;;;;;;;;;;;;;;;-144.99;56.57;52195.34;5108999;28;19923;-76
2023/10/18 11:29:45;;;;;;;;;;;;;;;-144.99;56.41;52213.69;5108284;28;19928;-75
2023/10/18 11:32:17;;;;;;;;;;;;;;;-144.99;56.60;52193.31;5100241;28;19932;-75
2023/10/18 11:34:44;;;;;;;;;;;;;;;-144.99;55.59;52207.59;5105618;27;20151;-76
2023/10/18 11:37:13;;;;;;;;;;;;;;;-144.99;55.04;52166.81;5106553;28;20371;-76
2023/10/18 11:39:40;;;;;;;;;;;;;;;-144.99;54.96;52166.81;5114845;27;19980;-76
2023/10/18 11:42:10;;;;;;;;;;;;;;;-144.99;54.90;52183.13;5101922;27;19931;-77
2023/10/18 11:44:39;;;;;;;;;;;;;;;-144.99;55.31;52211.66;5115359;27;19957;-76
2023/10/18 11:47:18;;;;;;;;;;;;;;;-144.99;55.26;52195.34;5122430;27;19923;-76
2023/10/18 11:49:45;;;;;;;;;;;;;;;-144.99;55.06;52126.06;5108563;27;19958;-77
2023/10/18 11:52:13;;;;;;;;;;;;;;;-144.99;54.72;52156.63;5102267;28;19932;-74
2023/10/18 11:54:41;;;;;;;;;;;;;;;-144.99;54.54;52195.34;5106864;28;19934;-76
2023/10/18 11:57:24;;;;;;;;;;;;;;;-144.99;55.21;52158.66;5110216;27;19938;-76
2023/10/18 11:59:52;;;;;;;;;;;;;;;-144.99;55.16;52179.06;5109581;28;19927;-76
2023/10/18 12:02:20;;;;;;;;;;;;;;;-144.99;54.96;52195.34;5106743;28;19991;-76
2023/10/18 12:04:48;;;;;;;;;;;;;;;-144.99;55.01;52191.28;5084370;28;20010;-76
2023/10/18 12:07:14;;;;;;;;;;;;;;;-144.99;55.06;52232.03;5097864;27;19930;-77
2023/10/18 12:09:44;;;;;;;;;;;;;;;-144.99;54.94;52199.44;5125147;27;19998;-75
2023/10/18 12:12:12;;;;;;;;;;;;;;;-144.99;55.40;52166.81;5125894;28;19940;-76
2023/10/18 12:14:39;;;;;;;;;;;;;;;-144.99;56.04;52203.50;5108951;27;20279;-76
2023/10/18 12:17:07;;;;;;;;;;;;;;;-144.99;55.69;52183.13;5113775;27;19931;-77
2023/10/18 12:19:36;;;;;;;;;;;;;;;-144.99;55.07;52199.44;5109956;28;20018;-77
2023/10/18 12:22:04;;;;;;;;;;;;;;;-144.99;55.87;52162.75;5106997;27;19924;-76
2023/10/18 12:24:33;;;;;;;;;;;;;;;-144.99;55.16;52203.50;5112623;27;20026;-78
2023/10/18 12:27:07;;;;;;;;;;;;;;;-144.99;55.71;52227.97;5103088;27;19969;-76
2023/10/18 12:29:34;;;;;;;;;;;;;;;-144.99;55.79;52174.97;5112300;27;19931;-76
2023/10/18 12:32:19;;;;;;;;;;;;;;;-144.99;55.61;52203.50;5099179;27;19984;-76
2023/10/18 12:34:48;;;;;;;;;;;;;;;-144.99;55.55;52240.19;5106234;27;19928;-75
2023/10/18 12:37:15;;;;;;;;;;;;;;;-144.99;55.79;52258.53;5100740;28;19985;-75
2023/10/18 12:39:46;;;;;;;;;;;;;;;-144.99;56.31;52189.25;5118729;27;20010;-76
2023/10/18 12:42:13;;;;;;;;;;;;;;;-144.99;55.53;52280.97;5103195;27;20370;-75